sensor_id;sensor_type;location;lat;lon;timestamp;P1;durP1;ratioP1;P2;durP2;ratioP2
39930;SDS011;26635;-35.248;149.138;2023-08-21T00:01:08;3.13;;;2.05;;
39930;SDS011;26635;-35.248;149.138;2023-08-21T00:03:40;2.40;;;2.00;;
39930;SDS011;26635;-35.248;149.138;2023-08-21T00:06:13;3.25;;;1.98;;
39930;SDS011;26635;-35.248;149.138;2023-08-21T00:08:43;3.28;;;1.75;;
39930;SDS011;26635;-35.248;149.138;2023-08-21T00:11:13;4.05;;;2.42;;
39930;SDS011;26635;-35.248;149.138;2023-08-21T00:13:44;2.92;;;1.67;;
39930;SDS011;26635;-35.248;149.138;2023-08-21T00:16:16;2.80;;;1.88;;
39930;SDS011;26635;-35.248;149.138;2023-08-21T00:18:47;3.03;;;1.88;;
39930;SDS011;26635;-35.248;149.138;2023-08-21T00:21:18;2.80;;;1.60;;
39930;SDS011;26635;-35.248;149.138;2023-08-21T00:23:49;3.45;;;2.10;;
39930;SDS011;26635;-35.248;149.138;2023-08-21T00:26:19;2.85;;;1.58;;
39930;SDS011;26635;-35.248;149.138;2023-08-21T00:28:49;2.88;;;2.08;;
39930;SDS011;26635;-35.248;149.138;2023-08-21T00:31:20;3.92;;;2.65;;
39930;SDS011;26635;-35.248;149.138;2023-08-21T00:33:50;2.97;;;1.90;;
39930;SDS011;26635;-35.248;149.138;2023-08-21T00:36:20;2.90;;;2.10;;
39930;SDS011;26635;-35.248;149.138;2023-08-21T00:38:52;3.40;;;2.00;;
39930;SDS011;26635;-35.248;149.138;2023-08-21T00:41:23;4.05;;;2.20;;
39930;SDS011;26635;-35.248;149.138;2023-08-21T00:43:54;4.10;;;2.47;;
39930;SDS011;26635;-35.248;149.138;2023-08-21T00:46:24;3.25;;;1.90;;
39930;SDS011;26635;-35.248;149.138;2023-08-21T00:48:55;2.83;;;2.00;;
39930;SDS011;26635;-35.248;149.138;2023-08-21T00:51:25;2.80;;;1.85;;
39930;SDS011;26635;-35.248;149.138;2023-08-21T00:53:56;4.00;;;2.72;;
39930;SDS011;26635;-35.248;149.138;2023-08-21T00:56:27;3.92;;;2.35;;
39930;SDS011;26635;-35.248;149.138;2023-08-21T00:58:57;3.60;;;2.58;;
39930;SDS011;26635;-35.248;149.138;2023-08-21T01:01:28;4.13;;;3.25;;
39930;SDS011;26635;-35.248;149.138;2023-08-21T01:03:59;3.60;;;2.67;;
39930;SDS011;26635;-35.248;149.138;2023-08-21T01:06:35;3.58;;;2.25;;
39930;SDS011;26635;-35.248;149.138;2023-08-21T01:09:54;3.10;;;2.15;;
39930;SDS011;26635;-35.248;149.138;2023-08-21T01:12:51;3.35;;;2.40;;
39930;SDS011;26635;-35.248;149.138;2023-08-21T01:15:28;4.00;;;2.50;;
39930;SDS011;26635;-35.248;149.138;2023-08-21T01:18:01;3.58;;;2.35;;
39930;SDS011;26635;-35.248;149.138;2023-08-21T01:20:32;3.00;;;2.28;;
39930;SDS011;26635;-35.248;149.138;2023-08-21T01:23:06;2.65;;;2.08;;
39930;SDS011;26635;-35.248;149.138;2023-08-21T01:25:37;2.95;;;2.20;;
39930;SDS011;26635;-35.248;149.138;2023-08-21T01:28:08;3.33;;;2.58;;
39930;SDS011;26635;-35.248;149.138;2023-08-21T01:30:38;3.45;;;2.58;;
39930;SDS011;26635;-35.248;149.138;2023-08-21T01:33:10;2.97;;;2.25;;
39930;SDS011;26635;-35.248;149.138;2023-08-21T01:35:44;2.85;;;2.05;;
39930;SDS011;26635;-35.248;149.138;2023-08-21T01:38:15;3.03;;;2.25;;
39930;SDS011;26635;-35.248;149.138;2023-08-21T01:40:58;4.38;;;2.72;;
39930;SDS011;26635;-35.248;149.138;2023-08-21T01:43:28;2.75;;;2.10;;
39930;SDS011;26635;-35.248;149.138;2023-08-21T01:46:00;3.28;;;2.45;;
39930;SDS011;26635;-35.248;149.138;2023-08-21T01:48:32;3.92;;;2.45;;
39930;SDS011;26635;-35.248;149.138;2023-08-21T01:51:02;3.45;;;2.00;;
39930;SDS011;26635;-35.248;149.138;2023-08-21T01:53:33;3.28;;;2.15;;
39930;SDS011;26635;-35.248;149.138;2023-08-21T01:56:03;3.95;;;2.33;;
39930;SDS011;26635;-35.248;149.138;2023-08-21T01:59:19;3.08;;;1.58;;
39930;SDS011;26635;-35.248;149.138;2023-08-21T02:01:51;3.42;;;2.08;;
39930;SDS011;26635;-35.248;149.138;2023-08-21T02:04:22;3.03;;;2.03;;
39930;SDS011;26635;-35.248;149.138;2023-08-21T02:06:52;2.67;;;2.03;;
39930;SDS011;26635;-35.248;149.138;2023-08-21T02:09:23;2.97;;;1.83;;
39930;SDS011;26635;-35.248;149.138;2023-08-21T02:11:53;3.20;;;1.48;;
39930;SDS011;26635;-35.248;149.138;2023-08-21T02:14:24;2.42;;;1.65;;
39930;SDS011;26635;-35.248;149.138;2023-08-21T02:16:54;2.10;;;0.90;;
39930;SDS011;26635;-35.248;149.138;2023-08-21T02:19:25;1.80;;;1.15;;
39930;SDS011;26635;-35.248;149.138;2023-08-21T02:21:55;2.28;;;1.17;;
39930;SDS011;26635;-35.248;149.138;2023-08-21T02:24:25;1.63;;;0.93;;
39930;SDS011;26635;-35.248;149.138;2023-08-21T02:26:56;1.70;;;1.00;;
39930;SDS011;26635;-35.248;149.138;2023-08-21T02:29:26;1.83;;;1.30;;
39930;SDS011;26635;-35.248;149.138;2023-08-21T02:31:56;1.98;;;0.90;;
39930;SDS011;26635;-35.248;149.138;2023-08-21T02:34:27;1.85;;;0.85;;
39930;SDS011;26635;-35.248;149.138;2023-08-21T02:36:57;1.50;;;1.00;;
39930;SDS011;26635;-35.248;149.138;2023-08-21T02:39:28;3.63;;;1.50;;
39930;SDS011;26635;-35.248;149.138;2023-08-21T02:41:58;2.08;;;0.90;;
39930;SDS011;26635;-35.248;149.138;2023-08-21T02:44:29;1.63;;;0.90;;
39930;SDS011;26635;-35.248;149.138;2023-08-21T02:46:59;1.38;;;0.82;;
39930;SDS011;26635;-35.248;149.138;2023-08-21T02:49:29;1.02;;;0.70;;
39930;SDS011;26635;-35.248;149.138;2023-08-21T02:52:00;1.95;;;0.85;;
39930;SDS011;26635;-35.248;149.138;2023-08-21T02:54:30;2.28;;;1.02;;
39930;SDS011;26635;-35.248;149.138;2023-08-21T02:57:00;1.65;;;1.00;;
39930;SDS011;26635;-35.248;149.138;2023-08-21T02:59:31;2.03;;;1.20;;
39930;SDS011;26635;-35.248;149.138;2023-08-21T03:02:01;1.35;;;0.80;;
39930;SDS011;26635;-35.248;149.138;2023-08-21T03:04:31;1.85;;;0.95;;
39930;SDS011;26635;-35.248;149.138;2023-08-21T03:07:02;1.70;;;1.13;;
39930;SDS011;26635;-35.248;149.138;2023-08-21T03:09:32;1.25;;;1.02;;
39930;SDS011;26635;-35.248;149.138;2023-08-21T03:12:02;2.15;;;1.00;;
39930;SDS011;26635;-35.248;149.138;2023-08-21T03:14:33;1.00;;;0.70;;
39930;SDS011;26635;-35.248;149.138;2023-08-21T03:17:04;1.20;;;0.85;;
39930;SDS011;26635;-35.248;149.138;2023-08-21T03:19:36;1.63;;;0.90;;
39930;SDS011;26635;-35.248;149.138;2023-08-21T03:22:07;1.73;;;1.08;;
39930;SDS011;26635;-35.248;149.138;2023-08-21T03:24:37;1.38;;;1.00;;
39930;SDS011;26635;-35.248;149.138;2023-08-21T03:27:08;1.50;;;1.08;;
39930;SDS011;26635;-35.248;149.138;2023-08-21T03:29:38;1.60;;;1.25;;
39930;SDS011;26635;-35.248;149.138;2023-08-21T03:32:09;2.35;;;1.10;;
39930;SDS011;26635;-35.248;149.138;2023-08-21T03:34:40;1.45;;;0.90;;
39930;SDS011;26635;-35.248;149.138;2023-08-21T03:37:11;1.45;;;1.10;;
39930;SDS011;26635;-35.248;149.138;2023-08-21T03:39:42;1.40;;;0.90;;
39930;SDS011;26635;-35.248;149.138;2023-08-21T03:42:15;1.58;;;1.08;;
39930;SDS011;26635;-35.248;149.138;2023-08-21T03:44:46;8.68;;;3.22;;
39930;SDS011;26635;-35.248;149.138;2023-08-21T03:47:18;3.80;;;1.40;;
39930;SDS011;26635;-35.248;149.138;2023-08-21T03:49:49;1.92;;;0.98;;
39930;SDS011;26635;-35.248;149.138;2023-08-21T03:52:20;2.00;;;0.93;;
39930;SDS011;26635;-35.248;149.138;2023-08-21T03:54:50;3.13;;;0.90;;
39930;SDS011;26635;-35.248;149.138;2023-08-21T03:57:21;2.85;;;0.82;;
39930;SDS011;26635;-35.248;149.138;2023-08-21T03:59:53;2.00;;;1.00;;
39930;SDS011;26635;-35.248;149.138;2023-08-21T04:02:23;1.60;;;0.88;;
39930;SDS011;26635;-35.248;149.138;2023-08-21T04:04:54;1.45;;;0.80;;
39930;SDS011;26635;-35.248;149.138;2023-08-21T04:07:26;1.15;;;0.70;;
39930;SDS011;26635;-35.248;149.138;2023-08-21T04:09:56;1.67;;;0.65;;
39930;SDS011;26635;-35.248;149.138;2023-08-21T04:12:27;0.93;;;0.60;;
39930;SDS011;26635;-35.248;149.138;2023-08-21T04:14:57;4.13;;;0.82;;
39930;SDS011;26635;-35.248;149.138;2023-08-21T04:17:29;2.42;;;0.80;;
39930;SDS011;26635;-35.248;149.138;2023-08-21T04:20:00;0.90;;;0.63;;
39930;SDS011;26635;-35.248;149.138;2023-08-21T04:22:30;1.90;;;0.93;;
39930;SDS011;26635;-35.248;149.138;2023-08-21T04:25:00;1.25;;;0.70;;
39930;SDS011;26635;-35.248;149.138;2023-08-21T04:27:31;1.35;;;0.60;;
39930;SDS011;26635;-35.248;149.138;2023-08-21T04:30:01;0.93;;;0.50;;
39930;SDS011;26635;-35.248;149.138;2023-08-21T04:32:33;1.73;;;0.82;;
39930;SDS011;26635;-35.248;149.138;2023-08-21T04:35:04;2.47;;;1.00;;
39930;SDS011;26635;-35.248;149.138;2023-08-21T04:37:37;1.50;;;0.60;;
39930;SDS011;26635;-35.248;149.138;2023-08-21T04:40:12;1.67;;;0.90;;
39930;SDS011;26635;-35.248;149.138;2023-08-21T04:42:44;1.38;;;0.70;;
39930;SDS011;26635;-35.248;149.138;2023-08-21T04:45:14;1.70;;;1.02;;
39930;SDS011;26635;-35.248;149.138;2023-08-21T04:47:45;3.20;;;0.75;;
39930;SDS011;26635;-35.248;149.138;2023-08-21T04:50:16;2.20;;;0.82;;
39930;SDS011;26635;-35.248;149.138;2023-08-21T04:52:46;1.02;;;0.75;;
39930;SDS011;26635;-35.248;149.138;2023-08-21T04:55:17;1.90;;;1.33;;
39930;SDS011;26635;-35.248;149.138;2023-08-21T04:57:48;2.40;;;0.82;;
39930;SDS011;26635;-35.248;149.138;2023-08-21T05:00:18;1.30;;;0.75;;
39930;SDS011;26635;-35.248;149.138;2023-08-21T05:02:49;0.95;;;0.63;;
39930;SDS011;26635;-35.248;149.138;2023-08-21T05:05:19;1.42;;;0.80;;
39930;SDS011;26635;-35.248;149.138;2023-08-21T05:07:50;1.75;;;0.70;;
39930;SDS011;26635;-35.248;149.138;2023-08-21T05:10:21;2.08;;;0.90;;
39930;SDS011;26635;-35.248;149.138;2023-08-21T05:12:53;0.80;;;0.57;;
39930;SDS011;26635;-35.248;149.138;2023-08-21T05:15:26;1.08;;;0.60;;
39930;SDS011;26635;-35.248;149.138;2023-08-21T05:17:57;2.72;;;0.63;;
39930;SDS011;26635;-35.248;149.138;2023-08-21T05:20:28;1.30;;;0.65;;
39930;SDS011;26635;-35.248;149.138;2023-08-21T05:23:00;1.65;;;0.57;;
39930;SDS011;26635;-35.248;149.138;2023-08-21T05:25:31;0.82;;;0.57;;
39930;SDS011;26635;-35.248;149.138;2023-08-21T05:28:02;1.10;;;0.80;;
39930;SDS011;26635;-35.248;149.138;2023-08-21T05:30:32;2.25;;;0.80;;
39930;SDS011;26635;-35.248;149.138;2023-08-21T05:33:04;2.13;;;0.77;;
39930;SDS011;26635;-35.248;149.138;2023-08-21T05:35:39;1.08;;;0.60;;
39930;SDS011;26635;-35.248;149.138;2023-08-21T05:38:10;1.45;;;0.63;;
39930;SDS011;26635;-35.248;149.138;2023-08-21T05:40:43;0.63;;;0.40;;
39930;SDS011;26635;-35.248;149.138;2023-08-21T05:43:16;1.60;;;0.47;;
39930;SDS011;26635;-35.248;149.138;2023-08-21T05:45:47;1.10;;;0.52;;
39930;SDS011;26635;-35.248;149.138;2023-08-21T05:48:18;0.65;;;0.38;;
39930;SDS011;26635;-35.248;149.138;2023-08-21T05:50:52;0.95;;;0.45;;
39930;SDS011;26635;-35.248;149.138;2023-08-21T05:53:23;1.92;;;0.50;;
39930;SDS011;26635;-35.248;149.138;2023-08-21T05:55:54;1.63;;;0.50;;
39930;SDS011;26635;-35.248;149.138;2023-08-21T05:58:25;1.02;;;0.57;;
39930;SDS011;26635;-35.248;149.138;2023-08-21T06:00:59;1.13;;;0.80;;
39930;SDS011;26635;-35.248;149.138;2023-08-21T06:03:29;1.63;;;0.95;;
39930;SDS011;26635;-35.248;149.138;2023-08-21T06:06:00;2.35;;;0.50;;
39930;SDS011;26635;-35.248;149.138;2023-08-21T06:08:30;0.70;;;0.47;;
39930;SDS011;26635;-35.248;149.138;2023-08-21T06:11:01;0.90;;;0.60;;
39930;SDS011;26635;-35.248;149.138;2023-08-21T06:13:31;1.95;;;0.55;;
39930;SDS011;26635;-35.248;149.138;2023-08-21T06:16:02;1.33;;;0.52;;
39930;SDS011;26635;-35.248;149.138;2023-08-21T06:18:33;0.85;;;0.60;;
39930;SDS011;26635;-35.248;149.138;2023-08-21T06:21:03;0.98;;;0.47;;
39930;SDS011;26635;-35.248;149.138;2023-08-21T06:23:34;0.95;;;0.50;;
39930;SDS011;26635;-35.248;149.138;2023-08-21T06:26:06;0.90;;;0.40;;
39930;SDS011;26635;-35.248;149.138;2023-08-21T06:28:37;2.50;;;0.55;;
39930;SDS011;26635;-35.248;149.138;2023-08-21T06:31:08;2.40;;;0.90;;
39930;SDS011;26635;-35.248;149.138;2023-08-21T06:33:39;1.27;;;0.60;;
39930;SDS011;26635;-35.248;149.138;2023-08-21T06:36:10;1.27;;;0.50;;
39930;SDS011;26635;-35.248;149.138;2023-08-21T06:38:42;0.75;;;0.43;;
39930;SDS011;26635;-35.248;149.138;2023-08-21T06:41:13;1.20;;;0.60;;
39930;SDS011;26635;-35.248;149.138;2023-08-21T06:43:44;0.70;;;0.40;;
39930;SDS011;26635;-35.248;149.138;2023-08-21T06:46:15;0.60;;;0.35;;
39930;SDS011;26635;-35.248;149.138;2023-08-21T06:48:45;0.50;;;0.40;;
39930;SDS011;26635;-35.248;149.138;2023-08-21T06:51:16;1.95;;;0.30;;
39930;SDS011;26635;-35.248;149.138;2023-08-21T06:53:46;0.57;;;0.40;;
39930;SDS011;26635;-35.248;149.138;2023-08-21T06:56:17;1.20;;;0.35;;
39930;SDS011;26635;-35.248;149.138;2023-08-21T06:58:47;0.73;;;0.40;;
39930;SDS011;26635;-35.248;149.138;2023-08-21T07:01:17;0.90;;;0.63;;
39930;SDS011;26635;-35.248;149.138;2023-08-21T07:03:49;0.40;;;0.30;;
39930;SDS011;26635;-35.248;149.138;2023-08-21T07:06:19;1.00;;;0.43;;
39930;SDS011;26635;-35.248;149.138;2023-08-21T07:08:50;3.42;;;0.50;;
39930;SDS011;26635;-35.248;149.138;2023-08-21T07:11:20;0.57;;;0.30;;
39930;SDS011;26635;-35.248;149.138;2023-08-21T07:13:50;0.50;;;0.40;;
39930;SDS011;26635;-35.248;149.138;2023-08-21T07:16:21;1.75;;;0.52;;
39930;SDS011;26635;-35.248;149.138;2023-08-21T07:18:52;1.42;;;0.70;;
39930;SDS011;26635;-35.248;149.138;2023-08-21T07:21:22;1.17;;;0.60;;
39930;SDS011;26635;-35.248;149.138;2023-08-21T07:24:00;1.63;;;0.63;;
39930;SDS011;26635;-35.248;149.138;2023-08-21T07:26:35;2.22;;;0.70;;
39930;SDS011;26635;-35.248;149.138;2023-08-21T07:29:26;1.35;;;0.70;;
39930;SDS011;26635;-35.248;149.138;2023-08-21T07:31:56;1.05;;;0.22;;
39930;SDS011;26635;-35.248;149.138;2023-08-21T07:34:27;0.88;;;0.40;;
39930;SDS011;26635;-35.248;149.138;2023-08-21T07:36:57;0.77;;;0.30;;
39930;SDS011;26635;-35.248;149.138;2023-08-21T07:39:28;1.88;;;0.40;;
39930;SDS011;26635;-35.248;149.138;2023-08-21T07:41:59;2.28;;;0.40;;
39930;SDS011;26635;-35.248;149.138;2023-08-21T07:44:30;2.50;;;0.40;;
39930;SDS011;26635;-35.248;149.138;2023-08-21T07:47:00;1.27;;;0.32;;
39930;SDS011;26635;-35.248;149.138;2023-08-21T07:49:32;0.65;;;0.40;;
39930;SDS011;26635;-35.248;149.138;2023-08-21T07:52:08;0.35;;;0.17;;
39930;SDS011;26635;-35.248;149.138;2023-08-21T07:55:20;1.17;;;0.65;;
39930;SDS011;26635;-35.248;149.138;2023-08-21T07:58:09;2.05;;;0.32;;
39930;SDS011;26635;-35.248;149.138;2023-08-21T08:00:40;1.33;;;0.32;;
39930;SDS011;26635;-35.248;149.138;2023-08-21T08:03:13;0.43;;;0.20;;
39930;SDS011;26635;-35.248;149.138;2023-08-21T08:05:43;0.82;;;0.40;;
39930;SDS011;26635;-35.248;149.138;2023-08-21T08:08:21;0.70;;;0.20;;
39930;SDS011;26635;-35.248;149.138;2023-08-21T08:10:54;1.38;;;0.45;;
39930;SDS011;26635;-35.248;149.138;2023-08-21T08:13:25;1.52;;;0.85;;
39930;SDS011;26635;-35.248;149.138;2023-08-21T08:15:55;1.05;;;0.40;;
39930;SDS011;26635;-35.248;149.138;2023-08-21T08:18:26;1.23;;;0.40;;
39930;SDS011;26635;-35.248;149.138;2023-08-21T08:20:57;3.22;;;1.13;;
39930;SDS011;26635;-35.248;149.138;2023-08-21T08:23:27;2.15;;;0.70;;
39930;SDS011;26635;-35.248;149.138;2023-08-21T08:25:57;1.92;;;0.60;;
39930;SDS011;26635;-35.248;149.138;2023-08-21T08:28:28;1.75;;;0.63;;
39930;SDS011;26635;-35.248;149.138;2023-08-21T08:30:58;2.40;;;0.80;;
39930;SDS011;26635;-35.248;149.138;2023-08-21T08:33:29;1.55;;;0.73;;
39930;SDS011;26635;-35.248;149.138;2023-08-21T08:35:59;1.55;;;0.60;;
39930;SDS011;26635;-35.248;149.138;2023-08-21T08:38:29;1.40;;;0.50;;
39930;SDS011;26635;-35.248;149.138;2023-08-21T08:41:01;1.63;;;0.80;;
39930;SDS011;26635;-35.248;149.138;2023-08-21T08:43:35;2.10;;;0.70;;
39930;SDS011;26635;-35.248;149.138;2023-08-21T08:46:09;2.38;;;1.20;;
39930;SDS011;26635;-35.248;149.138;2023-08-21T08:48:41;2.38;;;1.20;;
39930;SDS011;26635;-35.248;149.138;2023-08-21T08:51:12;3.28;;;1.33;;
39930;SDS011;26635;-35.248;149.138;2023-08-21T08:53:42;2.38;;;1.20;;
39930;SDS011;26635;-35.248;149.138;2023-08-21T08:56:17;2.65;;;1.40;;
39930;SDS011;26635;-35.248;149.138;2023-08-21T08:58:48;4.53;;;2.33;;
39930;SDS011;26635;-35.248;149.138;2023-08-21T09:01:19;4.35;;;2.35;;
39930;SDS011;26635;-35.248;149.138;2023-08-21T09:03:49;7.38;;;3.55;;
39930;SDS011;26635;-35.248;149.138;2023-08-21T09:06:20;5.38;;;2.78;;
39930;SDS011;26635;-35.248;149.138;2023-08-21T09:08:57;5.10;;;2.85;;
39930;SDS011;26635;-35.248;149.138;2023-08-21T09:11:27;5.43;;;2.78;;
39930;SDS011;26635;-35.248;149.138;2023-08-21T09:13:58;5.63;;;2.45;;
39930;SDS011;26635;-35.248;149.138;2023-08-21T09:16:28;5.15;;;2.95;;
39930;SDS011;26635;-35.248;149.138;2023-08-21T09:18:58;6.38;;;2.70;;
39930;SDS011;26635;-35.248;149.138;2023-08-21T09:21:29;4.75;;;2.42;;
39930;SDS011;26635;-35.248;149.138;2023-08-21T09:24:00;4.25;;;2.42;;
39930;SDS011;26635;-35.248;149.138;2023-08-21T09:26:34;4.75;;;3.28;;
39930;SDS011;26635;-35.248;149.138;2023-08-21T09:29:06;6.93;;;3.38;;
39930;SDS011;26635;-35.248;149.138;2023-08-21T09:31:37;4.35;;;2.67;;
39930;SDS011;26635;-35.248;149.138;2023-08-21T09:34:07;4.28;;;2.80;;
39930;SDS011;26635;-35.248;149.138;2023-08-21T09:36:38;7.55;;;3.50;;
39930;SDS011;26635;-35.248;149.138;2023-08-21T09:39:14;7.32;;;4.85;;
39930;SDS011;26635;-35.248;149.138;2023-08-21T09:41:55;7.78;;;4.97;;
39930;SDS011;26635;-35.248;149.138;2023-08-21T09:44:26;7.25;;;3.88;;
39930;SDS011;26635;-35.248;149.138;2023-08-21T09:46:57;6.82;;;3.90;;
39930;SDS011;26635;-35.248;149.138;2023-08-21T09:49:27;5.38;;;3.53;;
39930;SDS011;26635;-35.248;149.138;2023-08-21T09:51:58;5.15;;;3.25;;
39930;SDS011;26635;-35.248;149.138;2023-08-21T09:54:29;3.90;;;2.38;;
39930;SDS011;26635;-35.248;149.138;2023-08-21T09:57:01;4.05;;;1.98;;
39930;SDS011;26635;-35.248;149.138;2023-08-21T09:59:32;3.88;;;2.45;;
39930;SDS011;26635;-35.248;149.138;2023-08-21T10:02:04;3.47;;;2.00;;
39930;SDS011;26635;-35.248;149.138;2023-08-21T10:04:35;7.68;;;2.47;;
39930;SDS011;26635;-35.248;149.138;2023-08-21T10:07:13;2.72;;;2.30;;
39930;SDS011;26635;-35.248;149.138;2023-08-21T10:09:45;3.10;;;1.40;;
39930;SDS011;26635;-35.248;149.138;2023-08-21T10:12:16;3.25;;;2.08;;
39930;SDS011;26635;-35.248;149.138;2023-08-21T10:14:51;2.42;;;1.75;;
39930;SDS011;26635;-35.248;149.138;2023-08-21T10:17:22;2.47;;;1.42;;
39930;SDS011;26635;-35.248;149.138;2023-08-21T10:19:52;2.60;;;1.27;;
39930;SDS011;26635;-35.248;149.138;2023-08-21T10:25:17;2.90;;;1.50;;
39930;SDS011;26635;-35.248;149.138;2023-08-21T10:27:56;1.95;;;1.10;;
39930;SDS011;26635;-35.248;149.138;2023-08-21T10:30:34;3.67;;;2.10;;
39930;SDS011;26635;-35.248;149.138;2023-08-21T10:33:04;6.30;;;3.40;;
39930;SDS011;26635;-35.248;149.138;2023-08-21T10:35:34;9.68;;;4.57;;
39930;SDS011;26635;-35.248;149.138;2023-08-21T10:38:09;8.57;;;4.18;;
39930;SDS011;26635;-35.248;149.138;2023-08-21T10:43:44;11.20;;;4.88;;
39930;SDS011;26635;-35.248;149.138;2023-08-21T10:46:15;11.60;;;5.20;;
39930;SDS011;26635;-35.248;149.138;2023-08-21T10:48:45;10.68;;;4.50;;
39930;SDS011;26635;-35.248;149.138;2023-08-21T10:51:16;9.20;;;4.63;;
39930;SDS011;26635;-35.248;149.138;2023-08-21T10:53:47;9.00;;;4.40;;
39930;SDS011;26635;-35.248;149.138;2023-08-21T10:56:17;9.45;;;4.10;;
39930;SDS011;26635;-35.248;149.138;2023-08-21T10:58:48;6.80;;;3.78;;
39930;SDS011;26635;-35.248;149.138;2023-08-21T11:01:20;8.10;;;4.57;;
39930;SDS011;26635;-35.248;149.138;2023-08-21T11:03:51;7.55;;;3.80;;
39930;SDS011;26635;-35.248;149.138;2023-08-21T11:06:21;6.35;;;3.47;;
39930;SDS011;26635;-35.248;149.138;2023-08-21T11:08:53;6.97;;;3.97;;
39930;SDS011;26635;-35.248;149.138;2023-08-21T11:11:23;5.75;;;3.78;;
39930;SDS011;26635;-35.248;149.138;2023-08-21T11:13:56;7.00;;;3.55;;
39930;SDS011;26635;-35.248;149.138;2023-08-21T11:16:29;7.95;;;3.83;;
39930;SDS011;26635;-35.248;149.138;2023-08-21T11:19:04;6.45;;;4.35;;
39930;SDS011;26635;-35.248;149.138;2023-08-21T11:21:34;11.00;;;5.00;;
39930;SDS011;26635;-35.248;149.138;2023-08-21T11:24:05;9.98;;;4.15;;
39930;SDS011;26635;-35.248;149.138;2023-08-21T11:26:36;6.95;;;3.15;;
39930;SDS011;26635;-35.248;149.138;2023-08-21T11:29:07;5.97;;;2.33;;
39930;SDS011;26635;-35.248;149.138;2023-08-21T11:31:37;6.00;;;2.63;;
39930;SDS011;26635;-35.248;149.138;2023-08-21T11:34:09;5.13;;;2.83;;
39930;SDS011;26635;-35.248;149.138;2023-08-21T11:36:49;5.63;;;2.17;;
39930;SDS011;26635;-35.248;149.138;2023-08-21T11:39:20;4.35;;;2.30;;
39930;SDS011;26635;-35.248;149.138;2023-08-21T11:41:55;4.85;;;2.70;;
39930;SDS011;26635;-35.248;149.138;2023-08-21T11:44:27;4.93;;;2.25;;
39930;SDS011;26635;-35.248;149.138;2023-08-21T11:46:59;6.53;;;2.35;;
39930;SDS011;26635;-35.248;149.138;2023-08-21T11:49:32;3.75;;;2.08;;
39930;SDS011;26635;-35.248;149.138;2023-08-21T11:52:05;4.93;;;2.60;;
39930;SDS011;26635;-35.248;149.138;2023-08-21T11:54:36;3.70;;;2.22;;
39930;SDS011;26635;-35.248;149.138;2023-08-21T11:57:12;6.20;;;2.60;;
39930;SDS011;26635;-35.248;149.138;2023-08-21T11:59:54;4.55;;;2.28;;
39930;SDS011;26635;-35.248;149.138;2023-08-21T12:02:27;5.97;;;2.63;;
39930;SDS011;26635;-35.248;149.138;2023-08-21T12:05:02;3.67;;;2.30;;
39930;SDS011;26635;-35.248;149.138;2023-08-21T12:07:34;5.55;;;2.90;;
39930;SDS011;26635;-35.248;149.138;2023-08-21T12:10:05;5.45;;;2.85;;
39930;SDS011;26635;-35.248;149.138;2023-08-21T12:12:35;4.13;;;2.90;;
39930;SDS011;26635;-35.248;149.138;2023-08-21T12:15:06;5.32;;;3.30;;
39930;SDS011;26635;-35.248;149.138;2023-08-21T12:17:37;8.88;;;5.60;;
39930;SDS011;26635;-35.248;149.138;2023-08-21T12:20:08;9.05;;;5.13;;
39930;SDS011;26635;-35.248;149.138;2023-08-21T12:22:41;11.48;;;5.38;;
39930;SDS011;26635;-35.248;149.138;2023-08-21T12:25:12;8.25;;;6.18;;
39930;SDS011;26635;-35.248;149.138;2023-08-21T12:27:42;10.23;;;5.82;;
39930;SDS011;26635;-35.248;149.138;2023-08-21T12:30:23;7.35;;;5.80;;
39930;SDS011;26635;-35.248;149.138;2023-08-21T12:32:54;12.73;;;5.75;;
39930;SDS011;26635;-35.248;149.138;2023-08-21T12:35:42;7.57;;;4.25;;
39930;SDS011;26635;-35.248;149.138;2023-08-21T12:38:13;5.07;;;3.00;;
39930;SDS011;26635;-35.248;149.138;2023-08-21T12:40:43;5.65;;;3.47;;
39930;SDS011;26635;-35.248;149.138;2023-08-21T12:43:14;5.43;;;3.00;;
39930;SDS011;26635;-35.248;149.138;2023-08-21T12:45:44;7.63;;;3.00;;
39930;SDS011;26635;-35.248;149.138;2023-08-21T12:48:15;4.57;;;2.88;;
39930;SDS011;26635;-35.248;149.138;2023-08-21T12:50:45;3.83;;;2.60;;
39930;SDS011;26635;-35.248;149.138;2023-08-21T12:53:16;5.85;;;3.63;;
39930;SDS011;26635;-35.248;149.138;2023-08-21T12:55:56;8.10;;;3.08;;
39930;SDS011;26635;-35.248;149.138;2023-08-21T12:58:28;5.32;;;2.80;;
39930;SDS011;26635;-35.248;149.138;2023-08-21T13:00:59;4.70;;;3.30;;
39930;SDS011;26635;-35.248;149.138;2023-08-21T13:03:33;7.00;;;3.67;;
39930;SDS011;26635;-35.248;149.138;2023-08-21T13:06:04;5.38;;;4.07;;
39930;SDS011;26635;-35.248;149.138;2023-08-21T13:08:34;6.18;;;4.60;;
39930;SDS011;26635;-35.248;149.138;2023-08-21T13:11:05;8.23;;;5.72;;
39930;SDS011;26635;-35.248;149.138;2023-08-21T13:13:35;9.65;;;6.15;;
39930;SDS011;26635;-35.248;149.138;2023-08-21T13:16:06;8.07;;;6.00;;
39930;SDS011;26635;-35.248;149.138;2023-08-21T13:18:36;8.50;;;6.70;;
39930;SDS011;26635;-35.248;149.138;2023-08-21T13:21:07;9.23;;;6.45;;
39930;SDS011;26635;-35.248;149.138;2023-08-21T13:23:38;9.65;;;5.38;;
39930;SDS011;26635;-35.248;149.138;2023-08-21T13:26:08;6.22;;;4.70;;
39930;SDS011;26635;-35.248;149.138;2023-08-21T13:28:39;6.85;;;4.22;;
39930;SDS011;26635;-35.248;149.138;2023-08-21T13:31:09;7.85;;;4.82;;
39930;SDS011;26635;-35.248;149.138;2023-08-21T13:33:44;8.73;;;5.20;;
39930;SDS011;26635;-35.248;149.138;2023-08-21T13:36:18;7.30;;;4.57;;
39930;SDS011;26635;-35.248;149.138;2023-08-21T13:38:51;8.45;;;5.93;;
39930;SDS011;26635;-35.248;149.138;2023-08-21T13:41:22;9.02;;;5.43;;
39930;SDS011;26635;-35.248;149.138;2023-08-21T13:43:52;6.35;;;4.80;;
39930;SDS011;26635;-35.248;149.138;2023-08-21T13:46:26;6.43;;;3.75;;
39930;SDS011;26635;-35.248;149.138;2023-08-21T13:48:56;6.20;;;4.35;;
39930;SDS011;26635;-35.248;149.138;2023-08-21T13:51:27;7.03;;;3.70;;
39930;SDS011;26635;-35.248;149.138;2023-08-21T13:53:58;5.75;;;3.30;;
39930;SDS011;26635;-35.248;149.138;2023-08-21T13:56:29;6.60;;;4.03;;
39930;SDS011;26635;-35.248;149.138;2023-08-21T13:58:59;5.57;;;3.97;;
39930;SDS011;26635;-35.248;149.138;2023-08-21T14:01:30;7.30;;;3.35;;
39930;SDS011;26635;-35.248;149.138;2023-08-21T14:04:01;6.78;;;3.33;;
39930;SDS011;26635;-35.248;149.138;2023-08-21T14:06:34;5.78;;;3.15;;
39930;SDS011;26635;-35.248;149.138;2023-08-21T14:09:04;6.53;;;3.50;;
39930;SDS011;26635;-35.248;149.138;2023-08-21T14:11:35;5.95;;;3.53;;
39930;SDS011;26635;-35.248;149.138;2023-08-21T14:14:05;4.57;;;3.00;;
39930;SDS011;26635;-35.248;149.138;2023-08-21T14:16:36;4.72;;;3.20;;
39930;SDS011;26635;-35.248;149.138;2023-08-21T14:19:06;5.25;;;3.25;;
39930;SDS011;26635;-35.248;149.138;2023-08-21T14:21:37;5.20;;;3.22;;
39930;SDS011;26635;-35.248;149.138;2023-08-21T14:24:07;4.38;;;2.63;;
39930;SDS011;26635;-35.248;149.138;2023-08-21T14:26:38;8.98;;;4.22;;
39930;SDS011;26635;-35.248;149.138;2023-08-21T14:29:09;10.48;;;5.78;;
39930;SDS011;26635;-35.248;149.138;2023-08-21T14:31:39;8.07;;;4.97;;
39930;SDS011;26635;-35.248;149.138;2023-08-21T14:34:10;8.52;;;4.55;;
39930;SDS011;26635;-35.248;149.138;2023-08-21T14:36:41;10.73;;;5.65;;
39930;SDS011;26635;-35.248;149.138;2023-08-21T14:39:12;8.73;;;5.10;;
39930;SDS011;26635;-35.248;149.138;2023-08-21T14:41:43;6.78;;;4.07;;